createdAt,value
2022-12-01T00:00:38.279Z,25.95
2022-12-01T00:03:06.497Z,29.85
2022-12-01T00:05:33.377Z,28.92
2022-12-01T00:08:00.082Z,27.15
2022-12-01T00:10:26.984Z,26.45
2022-12-01T00:12:53.857Z,24.00
2022-12-01T00:15:20.936Z,27.40
2022-12-01T00:17:48.915Z,23.38
2022-12-01T00:20:18.355Z,26.80
2022-12-01T00:22:46.292Z,33.55
2022-12-01T00:25:13.916Z,31.38
2022-12-01T00:27:41.152Z,33.58
2022-12-01T00:30:10.689Z,23.10
2022-12-01T00:32:37.619Z,29.63
2022-12-01T00:35:05.605Z,21.38
2022-12-01T00:37:34.419Z,25.38
2022-12-01T00:40:01.524Z,32.30
2022-12-01T00:42:28.407Z,28.05
2022-12-01T00:44:55.042Z,27.40
2022-12-01T00:47:22.020Z,30.38
2022-12-01T00:49:48.911Z,22.77
2022-12-01T00:52:17.288Z,30.63
2022-12-01T00:54:45.671Z,27.92
2022-12-01T00:57:12.698Z,27.77
2022-12-01T00:59:39.276Z,24.92
2022-12-01T01:02:07.416Z,28.90
2022-12-01T01:04:35.974Z,23.10
2022-12-01T01:07:03.679Z,27.77
2022-12-01T01:09:31.548Z,26.45
2022-12-01T01:11:59.919Z,29.88
2022-12-01T01:14:26.602Z,30.75
2022-12-01T01:16:54.128Z,21.05
2022-12-01T01:19:20.780Z,30.73
2022-12-01T01:21:47.438Z,33.17
2022-12-01T01:24:14.119Z,29.77
2022-12-01T01:26:40.704Z,28.23
2022-12-01T01:29:08.929Z,23.80
2022-12-01T01:31:36.650Z,26.48
2022-12-01T01:34:03.847Z,25.95
2022-12-01T01:36:30.623Z,25.73
2022-12-01T01:38:57.254Z,28.60
2022-12-01T01:41:24.778Z,27.50
2022-12-01T01:43:55.211Z,27.35
2022-12-01T01:46:24.607Z,26.83
2022-12-01T01:48:54.706Z,30.38
2022-12-01T01:51:30.173Z,26.75
2022-12-01T01:54:01.055Z,30.10
2022-12-01T01:56:28.355Z,24.55
2022-12-01T01:58:55.484Z,27.33
2022-12-01T02:01:23.575Z,23.77
2022-12-01T02:03:52.376Z,25.10
2022-12-01T02:06:19.372Z,21.60
2022-12-01T02:08:45.999Z,23.58
2022-12-01T02:11:49.949Z,29.25
2022-12-01T02:14:40.753Z,29.92
2022-12-01T02:17:29.781Z,27.30
2022-12-01T02:20:25.471Z,24.67
2022-12-01T02:23:10.238Z,31.55
2022-12-01T02:25:48.275Z,29.25
2022-12-01T02:28:41.565Z,27.92
2022-12-01T02:31:17.105Z,22.48
2022-12-01T02:33:53.278Z,27.25
2022-12-01T02:36:24.728Z,24.98
2022-12-01T02:38:59.071Z,26.83
2022-12-01T02:41:29.649Z,27.08
2022-12-01T02:44:03.030Z,26.48
2022-12-01T02:46:36.048Z,21.80
2022-12-01T02:49:10.952Z,26.40
2022-12-01T02:51:40.330Z,27.58
2022-12-01T02:54:08.548Z,25.10
2022-12-01T02:56:35.137Z,29.38
2022-12-01T02:59:01.739Z,26.35
2022-12-01T03:01:52.142Z,29.83
2022-12-01T03:04:35.718Z,28.23
2022-12-01T03:07:12.834Z,29.38
2022-12-01T03:09:47.128Z,22.23
2022-12-01T03:12:21.215Z,29.60
2022-12-01T03:14:58.620Z,34.60
2022-12-01T03:17:34.404Z,26.95
2022-12-01T03:20:09.039Z,29.40
2022-12-01T03:22:41.666Z,26.30
2022-12-01T03:25:09.898Z,26.05
2022-12-01T03:27:44.065Z,28.60
2022-12-01T03:30:17.849Z,27.70
2022-12-01T03:32:49.481Z,29.13
2022-12-01T03:35:21.362Z,27.42
2022-12-01T03:40:22.774Z,30.65
2022-12-01T03:42:55.503Z,29.25
2022-12-01T03:45:26.567Z,33.03
2022-12-01T03:47:54.738Z,30.58
2022-12-01T03:50:21.603Z,37.35
2022-12-01T03:52:59.496Z,34.33
2022-12-01T03:58:00.029Z,35.15
2022-12-01T04:00:27.176Z,37.75
2022-12-01T04:02:59.999Z,36.33
2022-12-01T04:05:27.292Z,34.05
2022-12-01T04:07:54.078Z,33.20
2022-12-01T04:10:20.946Z,35.20
2022-12-01T04:12:47.564Z,34.65
2022-12-01T04:15:14.744Z,38.90
2022-12-01T04:17:45.156Z,33.38
2022-12-01T04:20:14.933Z,25.55
2022-12-01T04:22:41.743Z,31.30
2022-12-01T04:25:09.452Z,27.13
2022-12-01T04:27:36.541Z,25.85
2022-12-01T04:30:04.441Z,30.50
2022-12-01T04:32:31.085Z,26.60
2022-12-01T04:34:57.683Z,27.70
2022-12-01T04:37:25.638Z,33.00
2022-12-01T04:39:52.602Z,30.70
2022-12-01T04:42:19.377Z,31.60
2022-12-01T04:44:45.971Z,29.40
2022-12-01T04:47:12.566Z,24.08
2022-12-01T04:49:39.145Z,30.15
2022-12-01T04:52:05.776Z,29.38
2022-12-01T04:54:33.759Z,25.05
2022-12-01T04:57:00.377Z,29.80
2022-12-01T04:59:26.964Z,28.55
2022-12-01T05:01:53.620Z,26.15
2022-12-01T05:04:25.599Z,29.40
2022-12-01T05:09:21.336Z,26.42
2022-12-01T05:11:49.353Z,29.08
2022-12-01T05:14:15.986Z,32.83
2022-12-01T05:16:42.728Z,24.67
2022-12-01T05:19:28.025Z,21.55
2022-12-01T05:21:54.704Z,27.30
2022-12-01T05:24:21.467Z,29.25
2022-12-01T05:26:49.664Z,30.35
2022-12-01T05:29:16.475Z,31.67
2022-12-01T05:31:43.228Z,26.67
2022-12-01T05:34:09.835Z,27.25
2022-12-01T05:36:36.928Z,33.22
2022-12-01T05:39:03.876Z,32.28
2022-12-01T05:41:30.704Z,27.65
2022-12-01T05:43:58.833Z,27.02
2022-12-01T05:46:25.851Z,29.55
2022-12-01T05:48:52.553Z,24.50
2022-12-01T05:51:19.605Z,30.00
2022-12-01T05:53:46.539Z,21.50
2022-12-01T05:56:13.353Z,23.35
2022-12-01T05:58:39.981Z,22.33
2022-12-01T06:01:08.467Z,23.98
2022-12-01T06:03:35.268Z,20.30
2022-12-01T06:06:02.347Z,32.20
2022-12-01T06:08:29.040Z,28.65
2022-12-01T06:10:55.660Z,23.23
2022-12-01T06:13:22.360Z,23.00
2022-12-01T06:15:56.383Z,22.65
2022-12-01T06:18:25.059Z,24.77
2022-12-01T06:20:51.656Z,27.00
2022-12-01T06:23:18.296Z,25.15
2022-12-01T06:25:44.951Z,28.35
2022-12-01T06:28:11.719Z,29.02
2022-12-01T06:30:40.899Z,31.60
2022-12-01T06:33:07.672Z,24.10
2022-12-01T06:35:36.437Z,29.13
2022-12-01T06:38:03.554Z,35.50
2022-12-01T06:40:30.578Z,33.63
2022-12-01T06:43:00.246Z,28.95
2022-12-01T06:45:26.980Z,31.63
2022-12-01T06:47:54.388Z,34.38
2022-12-01T06:50:21.500Z,26.02
2022-12-01T06:52:49.704Z,33.63
2022-12-01T06:55:16.583Z,29.00
2022-12-01T06:57:43.738Z,28.42
2022-12-01T07:00:12.972Z,32.42
2022-12-01T07:02:39.949Z,29.70
2022-12-01T07:05:07.216Z,30.48
2022-12-01T07:07:36.528Z,30.52
2022-12-01T07:10:05.378Z,21.67
2022-12-01T07:12:32.742Z,36.05
2022-12-01T07:14:59.632Z,28.80
2022-12-01T07:17:26.349Z,35.97
2022-12-01T07:19:56.353Z,29.88
2022-12-01T07:22:26.899Z,31.92
2022-12-01T07:24:56.204Z,31.30
2022-12-01T07:27:24.212Z,29.83
2022-12-01T07:29:50.932Z,29.48
2022-12-01T07:32:17.796Z,25.23
2022-12-01T07:34:44.490Z,32.25
2022-12-01T07:37:11.157Z,29.38
2022-12-01T07:39:37.784Z,31.98
2022-12-01T07:42:04.861Z,26.70
2022-12-01T07:44:32.940Z,29.20
2022-12-01T07:46:59.739Z,33.72
2022-12-01T07:49:26.583Z,30.55
2022-12-01T07:51:53.196Z,31.17
2022-12-01T07:54:21.283Z,29.40
2022-12-01T07:56:47.933Z,25.77
2022-12-01T07:59:14.545Z,33.00
2022-12-01T08:01:44.684Z,42.80
2022-12-01T08:04:12.244Z,34.03
2022-12-01T08:06:38.988Z,31.27
2022-12-01T08:09:06.314Z,35.08
2022-12-01T08:11:33.085Z,34.67
2022-12-01T08:13:59.657Z,37.03
2022-12-01T08:16:26.552Z,38.53
2022-12-01T08:18:54.889Z,35.33
2022-12-01T08:21:23.487Z,33.95
2022-12-01T08:23:53.562Z,32.15
2022-12-01T08:26:20.918Z,31.88
2022-12-01T08:28:47.995Z,35.65
2022-12-01T08:31:17.556Z,32.25
2022-12-01T08:33:44.891Z,31.67
2022-12-01T08:36:13.169Z,33.13
2022-12-01T08:38:42.511Z,32.78
2022-12-01T08:41:09.407Z,27.08
2022-12-01T08:44:08.851Z,31.65
2022-12-01T08:46:33.658Z,31.05
2022-12-01T08:49:00.559Z,40.70
2022-12-01T08:51:28.732Z,40.65
2022-12-01T08:53:57.643Z,33.90
2022-12-01T08:56:26.964Z,31.48
2022-12-01T08:58:54.213Z,38.03
2022-12-01T09:01:28.684Z,31.27
2022-12-01T09:04:08.462Z,35.95
2022-12-01T09:06:40.195Z,35.17
2022-12-01T09:09:07.733Z,40.08
2022-12-01T09:11:35.668Z,36.03
2022-12-01T09:14:02.403Z,35.72
2022-12-01T09:16:29.360Z,40.88
2022-12-01T09:18:57.898Z,38.20
2022-12-01T09:21:30.358Z,36.05
2022-12-01T09:23:58.949Z,34.05
2022-12-01T09:26:26.587Z,32.28
2022-12-01T09:28:55.201Z,33.92
2022-12-01T09:31:25.615Z,34.22
2022-12-01T09:33:55.369Z,43.50
2022-12-01T09:36:21.982Z,33.80
2022-12-01T09:38:48.588Z,33.10
2022-12-01T09:41:20.703Z,34.25
2022-12-01T09:43:54.016Z,26.00
2022-12-01T09:46:25.849Z,32.40
2022-12-01T09:51:22.869Z,33.03
2022-12-01T09:53:51.334Z,34.15
2022-12-01T09:56:21.879Z,35.28
2022-12-01T09:58:52.499Z,33.45
2022-12-01T10:01:25.817Z,33.22
2022-12-01T10:03:58.670Z,38.03
2022-12-01T10:06:31.992Z,34.60
2022-12-01T10:09:07.428Z,33.08
2022-12-01T10:11:39.619Z,39.53
2022-12-01T10:14:15.144Z,35.85
2022-12-01T10:16:56.198Z,37.65
2022-12-01T10:19:29.996Z,34.95
2022-12-01T10:22:12.625Z,34.55
2022-12-01T10:24:52.653Z,28.90
2022-12-01T10:27:29.207Z,50.55
2022-12-01T10:30:04.149Z,37.55
2022-12-01T10:32:38.608Z,43.70
2022-12-01T10:35:05.476Z,38.17
2022-12-01T10:37:32.772Z,35.67
2022-12-01T10:39:59.573Z,35.90
2022-12-01T10:42:31.648Z,28.00
2022-12-01T10:45:02.237Z,30.05
2022-12-01T10:47:29.279Z,29.58
2022-12-01T10:49:56.713Z,33.28
2022-12-01T10:52:33.158Z,36.60
2022-12-01T10:55:00.340Z,31.10
2022-12-01T10:57:31.034Z,34.40
2022-12-01T11:00:01.899Z,39.05
2022-12-01T11:02:30.931Z,33.67
2022-12-01T11:04:59.301Z,29.15
2022-12-01T11:07:29.733Z,34.00
2022-12-01T11:10:16.631Z,32.88
2022-12-01T11:12:52.785Z,35.22
2022-12-01T11:15:22.801Z,26.80
2022-12-01T11:17:57.654Z,24.70
2022-12-01T11:20:30.543Z,30.52
2022-12-01T11:23:22.194Z,37.95
2022-12-01T11:25:58.645Z,28.00
2022-12-01T11:28:27.748Z,25.58
2022-12-01T11:31:00.390Z,29.58
2022-12-01T11:33:28.889Z,28.85
2022-12-01T11:35:55.905Z,32.47
2022-12-01T11:38:29.672Z,28.70
2022-12-01T11:40:58.030Z,33.10
2022-12-01T11:43:29.416Z,25.63
2022-12-01T11:45:58.280Z,30.85
2022-12-01T11:48:27.615Z,24.65
2022-12-01T11:51:07.811Z,23.88
2022-12-01T11:53:37.013Z,25.05
2022-12-01T11:56:15.972Z,26.73
2022-12-01T11:58:45.387Z,26.13
2022-12-01T12:01:24.477Z,22.27
2022-12-01T12:04:02.305Z,24.80
2022-12-01T12:09:44.767Z,24.40
2022-12-01T12:12:24.452Z,25.83
2022-12-01T12:15:05.046Z,21.73
2022-12-01T12:17:56.611Z,25.77
2022-12-01T12:20:36.331Z,21.25
2022-12-01T12:23:18.459Z,23.55
2022-12-01T12:25:55.117Z,24.15
2022-12-01T12:28:41.481Z,21.25
2022-12-01T12:31:17.005Z,19.60
2022-12-01T12:34:02.640Z,21.17
2022-12-01T12:36:42.137Z,20.50
2022-12-01T12:39:24.448Z,21.83
2022-12-01T12:41:54.199Z,25.70
2022-12-01T12:44:37.524Z,21.33
2022-12-01T12:47:17.718Z,20.58
2022-12-01T12:49:51.150Z,20.65
2022-12-01T12:52:22.701Z,20.73
2022-12-01T12:54:54.846Z,19.73
2022-12-01T12:57:27.328Z,20.52
2022-12-01T12:59:58.282Z,18.27
2022-12-01T13:02:32.438Z,22.48
2022-12-01T13:05:04.872Z,21.48
2022-12-01T13:07:40.366Z,19.50
2022-12-01T13:10:15.164Z,29.20
2022-12-01T13:12:50.513Z,20.63
2022-12-01T13:15:20.888Z,21.23
2022-12-01T13:17:52.524Z,29.00
2022-12-01T13:20:23.002Z,25.13
2022-12-01T13:22:51.513Z,23.90
2022-12-01T13:25:23.642Z,24.73
2022-12-01T13:27:52.452Z,24.85
2022-12-01T13:30:22.161Z,20.35
2022-12-01T13:32:58.985Z,25.40
2022-12-01T13:35:29.348Z,22.35
2022-12-01T13:38:13.470Z,24.25
2022-12-01T13:40:40.205Z,26.00
2022-12-01T13:43:17.688Z,20.58
2022-12-01T13:45:44.565Z,27.38
2022-12-01T13:51:05.756Z,32.22
2022-12-01T13:53:34.344Z,28.17
2022-12-01T13:56:23.511Z,28.80
2022-12-01T13:58:52.330Z,25.45
2022-12-01T14:01:45.695Z,27.38
2022-12-01T14:04:33.611Z,21.70
2022-12-01T14:07:23.341Z,27.05
2022-12-01T14:09:53.449Z,35.70
2022-12-01T14:12:23.595Z,26.05
2022-12-01T14:14:54.930Z,28.77
2022-12-01T14:17:28.092Z,27.58
2022-12-01T14:19:55.938Z,24.17
2022-12-01T14:22:38.285Z,22.65
2022-12-01T14:25:20.948Z,24.15
2022-12-01T14:27:49.788Z,21.75
2022-12-01T14:30:51.816Z,28.17
2022-12-01T14:33:47.583Z,32.78
2022-12-01T14:38:54.240Z,23.58
2022-12-01T14:41:25.487Z,24.40
2022-12-01T14:44:06.878Z,24.85
2022-12-01T14:46:41.097Z,26.85
2022-12-01T14:49:14.390Z,22.13
2022-12-01T14:51:45.981Z,22.33
2022-12-01T14:54:20.826Z,22.35
2022-12-01T14:56:51.272Z,21.40
2022-12-01T14:59:24.314Z,29.10
2022-12-01T15:01:53.591Z,27.23
2022-12-01T15:04:20.474Z,23.25
2022-12-01T15:06:53.185Z,23.33
2022-12-01T15:09:37.234Z,28.10
2022-12-01T15:12:07.647Z,29.38
2022-12-01T15:14:36.596Z,28.52
2022-12-01T15:17:05.692Z,27.25
2022-12-01T15:19:36.114Z,26.73
2022-12-01T15:22:05.618Z,28.23
2022-12-01T15:24:34.211Z,27.58
2022-12-01T15:27:03.918Z,35.78
2022-12-01T15:29:33.074Z,32.40
2022-12-01T15:32:01.761Z,32.38
2022-12-01T15:34:31.960Z,34.10
2022-12-01T15:36:59.912Z,30.10
2022-12-01T15:39:32.634Z,31.40
2022-12-01T15:42:02.250Z,31.30
2022-12-01T15:44:31.790Z,28.88
2022-12-01T15:46:58.619Z,29.73
2022-12-01T15:49:29.413Z,32.38
2022-12-01T15:52:05.976Z,25.13
2022-12-01T15:54:33.310Z,27.17
2022-12-01T15:57:03.416Z,30.95
2022-12-01T15:59:39.073Z,27.98
2022-12-01T16:02:15.725Z,23.20
2022-12-01T16:04:43.457Z,22.63
2022-12-01T16:07:11.594Z,26.88
2022-12-01T16:09:40.040Z,28.38
2022-12-01T16:12:22.779Z,29.13
2022-12-01T16:14:52.653Z,32.38
2022-12-01T16:17:19.681Z,30.50
2022-12-01T16:19:46.491Z,26.98
2022-12-01T16:22:17.840Z,27.63
2022-12-01T16:24:48.582Z,23.58
2022-12-01T16:27:22.945Z,27.45
2022-12-01T16:29:55.136Z,28.63
2022-12-01T16:32:26.719Z,30.08
2022-12-01T16:34:53.815Z,27.73
2022-12-01T16:37:22.123Z,25.50
2022-12-01T16:39:48.889Z,32.30
2022-12-01T16:42:17.536Z,25.27
2022-12-01T16:44:46.529Z,28.20
2022-12-01T16:47:16.368Z,26.98
2022-12-01T16:49:43.203Z,31.25
2022-12-01T16:52:42.569Z,24.40
2022-12-01T16:54:56.518Z,27.20
2022-12-01T16:57:23.194Z,34.67
2022-12-01T16:59:51.349Z,30.30
2022-12-01T17:02:18.190Z,26.92
2022-12-01T17:04:44.905Z,28.65
2022-12-01T17:07:11.770Z,29.40
2022-12-01T17:09:38.484Z,27.63
2022-12-01T17:12:05.861Z,26.67
2022-12-01T17:14:32.673Z,22.58
2022-12-01T17:17:00.662Z,25.00
2022-12-01T17:19:27.312Z,25.73
2022-12-01T17:21:55.764Z,22.88
2022-12-01T17:24:22.519Z,31.25
2022-12-01T17:26:49.182Z,36.60
2022-12-01T17:29:15.813Z,32.20
2022-12-01T17:31:42.486Z,26.92
2022-12-01T17:34:10.668Z,19.77
2022-12-01T17:36:37.342Z,23.33
2022-12-01T17:39:04.157Z,27.27
2022-12-01T17:41:35.665Z,27.27
2022-12-01T17:44:03.349Z,30.80
2022-12-01T17:46:30.260Z,34.20
2022-12-01T17:48:57.139Z,26.73
2022-12-01T17:51:25.271Z,24.92
2022-12-01T17:53:52.994Z,24.40
2022-12-01T17:56:19.607Z,27.88
2022-12-01T17:58:46.455Z,30.02
2022-12-01T18:01:15.159Z,21.85
2022-12-01T18:03:42.443Z,21.27
2022-12-01T18:06:09.148Z,24.05
2022-12-01T18:08:37.788Z,27.63
2022-12-01T18:11:08.499Z,24.52
2022-12-01T18:13:36.398Z,27.15
2022-12-01T18:16:06.872Z,23.38
2022-12-01T18:18:33.554Z,22.50
2022-12-01T18:21:00.168Z,22.30
2022-12-01T18:23:28.200Z,21.85
2022-12-01T18:25:56.438Z,20.88
2022-12-01T18:28:23.110Z,23.40
2022-12-01T18:30:49.786Z,25.85
2022-12-01T18:33:16.437Z,25.80
2022-12-01T18:35:44.588Z,22.48
2022-12-01T18:38:11.215Z,22.98
2022-12-01T18:40:43.775Z,21.25
2022-12-01T18:43:11.769Z,22.02
2022-12-01T18:45:39.296Z,24.50
2022-12-01T18:48:06.732Z,22.38
2022-12-01T18:50:34.010Z,25.77
2022-12-01T18:53:05.315Z,23.80
2022-12-01T18:55:31.982Z,21.08
2022-12-01T18:58:02.502Z,21.85
2022-12-01T19:00:30.778Z,23.98
2022-12-01T19:02:58.386Z,20.00
2022-12-01T19:05:25.383Z,21.20
2022-12-01T19:07:53.445Z,22.92
2022-12-01T19:10:20.636Z,24.17
2022-12-01T19:12:47.474Z,21.45
2022-12-01T19:15:14.348Z,22.20
2022-12-01T19:17:42.576Z,23.30
2022-12-01T19:20:10.223Z,22.98
2022-12-01T19:22:37.995Z,26.10
2022-12-01T19:25:13.273Z,31.25
2022-12-01T19:27:41.522Z,28.63
2022-12-01T19:30:08.963Z,23.50
2022-12-01T19:32:35.814Z,22.63
2022-12-01T19:35:10.026Z,21.35
2022-12-01T19:37:36.659Z,26.73
2022-12-01T19:40:04.440Z,24.52
2022-12-01T19:42:31.048Z,30.95
2022-12-01T19:44:57.745Z,26.33
2022-12-01T19:47:24.588Z,28.08
2022-12-01T19:49:51.222Z,24.73
2022-12-01T19:52:19.216Z,27.75
2022-12-01T19:54:45.831Z,26.52
2022-12-01T19:57:12.587Z,29.92
2022-12-01T19:59:39.169Z,31.67
2022-12-01T20:02:10.358Z,31.98
2022-12-01T20:04:38.834Z,31.75
2022-12-01T20:07:08.654Z,29.20
2022-12-01T20:09:37.163Z,29.48
2022-12-01T20:12:04.144Z,36.38
2022-12-01T20:14:30.815Z,35.88
2022-12-01T20:16:57.683Z,35.45
2022-12-01T20:19:24.296Z,31.67
2022-12-01T20:21:54.091Z,33.75
2022-12-01T20:24:22.115Z,35.25
2022-12-01T20:26:52.819Z,34.42
2022-12-01T20:29:23.447Z,35.42
2022-12-01T20:31:51.307Z,38.33
2022-12-01T20:34:20.089Z,33.78
2022-12-01T20:36:47.011Z,36.25
2022-12-01T20:39:14.946Z,35.88
2022-12-01T20:41:42.866Z,36.13
2022-12-01T20:44:12.309Z,38.88
2022-12-01T20:46:40.962Z,38.45
2022-12-01T20:49:08.251Z,36.15
2022-12-01T20:51:35.176Z,39.00
2022-12-01T20:54:27.231Z,34.38
2022-12-01T20:56:49.614Z,30.23
2022-12-01T20:59:17.759Z,40.78
2022-12-01T21:01:44.401Z,39.00
2022-12-01T21:04:12.381Z,41.28
2022-12-01T21:06:39.420Z,43.22
2022-12-01T21:09:07.764Z,44.05
2022-12-01T21:12:05.085Z,36.80
2022-12-01T21:14:37.744Z,37.20
2022-12-01T21:17:15.170Z,46.65
2022-12-01T21:19:46.239Z,46.00
2022-12-01T21:22:13.596Z,41.55
2022-12-01T21:24:43.962Z,39.20
2022-12-01T21:27:14.061Z,38.50
2022-12-01T21:29:44.864Z,39.88
2022-12-01T21:32:14.745Z,38.45
2022-12-01T21:34:41.842Z,39.10
2022-12-01T21:37:15.354Z,37.67
2022-12-01T21:39:42.505Z,40.03
2022-12-01T21:42:16.760Z,41.92
2022-12-01T21:44:45.499Z,41.35
2022-12-01T21:47:17.580Z,36.58
2022-12-01T21:49:45.349Z,38.60
2022-12-01T21:52:18.006Z,45.90
2022-12-01T21:54:46.357Z,45.25
2022-12-01T21:57:37.253Z,37.30
2022-12-01T22:00:28.482Z,45.15
2022-12-01T22:03:10.451Z,37.72
2022-12-01T22:05:40.362Z,39.13
2022-12-01T22:08:17.643Z,39.33
2022-12-01T22:10:54.520Z,43.30
2022-12-01T22:13:24.696Z,46.33
2022-12-01T22:15:54.401Z,43.78
2022-12-01T22:18:24.772Z,45.65
2022-12-01T22:20:51.615Z,41.50
2022-12-01T22:23:19.681Z,41.03
2022-12-01T22:25:48.244Z,38.78
2022-12-01T22:28:19.699Z,40.75
2022-12-01T22:30:46.773Z,42.70
2022-12-01T22:33:21.242Z,38.95
2022-12-01T22:35:49.290Z,39.90
2022-12-01T22:38:22.364Z,38.53
2022-12-01T22:40:56.269Z,41.92
2022-12-01T22:43:26.010Z,37.40
2022-12-01T22:46:02.142Z,38.75
2022-12-01T22:48:35.878Z,40.90
2022-12-01T22:51:21.048Z,36.58
2022-12-01T22:53:48.495Z,45.78
2022-12-01T22:56:26.666Z,49.10
2022-12-01T22:58:54.671Z,44.25
2022-12-01T23:01:25.171Z,52.45
2022-12-01T23:04:07.897Z,54.33
2022-12-01T23:06:58.433Z,53.30
2022-12-01T23:09:28.300Z,45.88
2022-12-01T23:11:59.095Z,49.97
2022-12-01T23:14:27.167Z,43.90
2022-12-01T23:17:04.429Z,44.63
2022-12-01T23:19:34.329Z,48.65
2022-12-01T23:22:02.078Z,45.88
2022-12-01T23:24:33.682Z,46.45
2022-12-01T23:27:00.861Z,38.78
2022-12-01T23:29:27.917Z,43.65
2022-12-01T23:31:54.586Z,40.13
2022-12-01T23:34:21.350Z,47.20
2022-12-01T23:36:50.555Z,40.92
2022-12-01T23:39:19.882Z,35.67
2022-12-01T23:41:48.809Z,43.45
2022-12-01T23:44:20.551Z,38.28
2022-12-01T23:46:49.058Z,37.08
2022-12-01T23:49:19.608Z,41.67
2022-12-01T23:51:51.473Z,41.17
2022-12-01T23:54:20.529Z,40.40
2022-12-01T23:56:51.860Z,43.33
2022-12-01T23:59:19.711Z,39.53
